Time;durP1;ratioP1;P1;durP2;ratioP2;P2;SDS_P1;SDS_P2;PMS_P1;PMS_P2;Temp;Humidity;BMP_temperature;BMP_pressure;BME280_temperature;BME280_humidity;BME280_pressure;Samples;Min_cycle;Max_cycle;Signal;HPM_P1;HPM_P2
2022/10/30 00:00:42;;;;;;;4.73;4.33;;;24.20;71.70;;;;;;5072704;28;21037;-85
2022/10/30 00:03:11;;;;;;;4.80;4.40;;;24.20;71.70;;;;;;5072322;28;20472;-85
2022/10/30 00:05:43;;;;;;;4.00;3.70;;;24.20;71.70;;;;;;5072826;28;20450;-85
2022/10/30 00:08:12;;;;;;;4.73;4.23;;;24.20;71.70;;;;;;5061089;28;20462;-85
2022/10/30 00:10:40;;;;;;;5.43;4.30;;;24.20;71.70;;;;;;5070056;28;20460;-85
2022/10/30 00:13:09;;;;;;;5.03;4.00;;;24.20;71.70;;;;;;5070401;28;20454;-85
2022/10/30 00:15:38;;;;;;;4.10;3.80;;;24.20;71.70;;;;;;5071350;28;20470;-85
2022/10/30 00:18:06;;;;;;;4.43;4.07;;;24.20;71.60;;;;;;5071284;28;20482;-85
2022/10/30 00:20:36;;;;;;;4.20;3.90;;;24.20;71.70;;;;;;5069276;28;20479;-85
2022/10/30 00:23:06;;;;;;;4.80;4.40;;;24.20;71.70;;;;;;5072166;28;20490;-85
2022/10/30 00:25:35;;;;;;;4.77;4.10;;;24.20;71.70;;;;;;5071302;28;20458;-85
2022/10/30 00:28:03;;;;;;;5.93;4.50;;;24.20;71.60;;;;;;5072224;28;20449;-85
2022/10/30 00:30:32;;;;;;;4.87;4.47;;;24.20;71.70;;;;;;5072001;28;20460;-85
2022/10/30 00:33:00;;;;;;;3.83;3.53;;;24.20;71.70;;;;;;5069512;28;20447;-85
2022/10/30 00:35:28;;;;;;;5.03;4.17;;;24.20;71.60;;;;;;5077405;28;20504;-85
2022/10/30 00:37:56;;;;;;;5.33;4.47;;;24.20;71.60;;;;;;5070127;28;20460;-85
2022/10/30 00:40:26;;;;;;;4.70;4.30;;;24.20;71.60;;;;;;5065903;28;20521;-85
2022/10/30 00:42:55;;;;;;;4.30;3.90;;;24.20;71.60;;;;;;5089095;28;20612;-85
2022/10/30 00:45:23;;;;;;;4.30;4.00;;;24.20;71.70;;;;;;5071034;28;20876;-85
2022/10/30 00:47:53;;;;;;;7.67;4.40;;;24.20;71.60;;;;;;5071339;28;20572;-85
2022/10/30 00:50:25;;;;;;;4.97;3.83;;;24.20;71.60;;;;;;5069201;28;20455;-85
2022/10/30 00:53:03;;;;;;;4.90;4.43;;;24.20;71.60;;;;;;5070544;28;20492;-85
2022/10/30 00:55:36;;;;;;;4.30;4.00;;;24.20;71.60;;;;;;5071841;28;20465;-85
2022/10/30 00:58:10;;;;;;;4.80;4.40;;;24.20;71.60;;;;;;5072016;28;21219;-85
2022/10/30 01:00:41;;;;;;;4.97;4.30;;;24.20;71.60;;;;;;5072514;28;20897;-85
2022/10/30 01:03:10;;;;;;;4.70;4.30;;;24.20;71.60;;;;;;5072067;28;20944;-85
2022/10/30 01:05:39;;;;;;;4.73;3.83;;;24.20;71.60;;;;;;5070554;28;20459;-85
2022/10/30 01:08:08;;;;;;;4.33;3.93;;;24.20;71.60;;;;;;5069107;28;20469;-85
2022/10/30 01:10:38;;;;;;;4.93;4.03;;;24.10;71.60;;;;;;5071982;28;20444;-85
2022/10/30 01:13:07;;;;;;;4.80;4.40;;;24.10;71.60;;;;;;5072372;28;20527;-85
2022/10/30 01:15:41;;;;;;;5.10;4.40;;;24.10;71.50;;;;;;5070678;28;20855;-85
2022/10/30 01:18:34;;;;;;;4.83;4.07;;;24.10;71.60;;;;;;5070726;28;20560;-85
2022/10/30 01:21:22;;;;;;;4.57;4.17;;;24.10;71.50;;;;;;5062927;28;20469;-85
2022/10/30 01:24:03;;;;;;;5.57;4.33;;;24.10;71.60;;;;;;5068285;28;20473;-85
2022/10/30 01:26:39;;;;;;;4.50;4.10;;;24.10;71.60;;;;;;5071783;28;20536;-85
2022/10/30 01:29:21;;;;;;;5.10;4.33;;;24.10;71.60;;;;;;5070525;28;20952;-85
2022/10/30 01:32:03;;;;;;;4.17;3.80;;;24.10;71.60;;;;;;5070553;28;20491;-85
2022/10/30 01:34:42;;;;;;;4.23;3.73;;;24.10;71.50;;;;;;5070698;28;20455;-85
2022/10/30 01:37:18;;;;;;;5.17;4.33;;;24.10;71.50;;;;;;5069458;28;20492;-85
2022/10/30 01:39:46;;;;;;;4.57;4.20;;;24.10;71.50;;;;;;5070429;28;20454;-85
2022/10/30 01:42:48;;;;;;;5.10;4.10;;;24.10;71.50;;;;;;5070189;28;20793;-85
2022/10/30 01:45:40;;;;;;;4.83;4.43;;;24.10;71.50;;;;;;5070018;28;20457;-85
2022/10/30 01:48:27;;;;;;;4.20;3.90;;;24.10;71.60;;;;;;5070198;28;20455;-85
2022/10/30 01:51:08;;;;;;;4.20;3.90;;;24.10;71.50;;;;;;5070395;28;20454;-85
2022/10/30 01:53:48;;;;;;;5.70;3.57;;;24.10;71.50;;;;;;5070275;28;20589;-85
2022/10/30 01:56:26;;;;;;;4.87;4.47;;;24.10;71.50;;;;;;5071411;28;20446;-85
2022/10/30 01:59:08;;;;;;;5.30;4.60;;;24.10;71.50;;;;;;5074186;28;20475;-85
2022/10/30 02:01:38;;;;;;;5.37;3.80;;;24.10;71.50;;;;;;5070437;28;20475;-85
2022/10/30 02:04:09;;;;;;;4.33;3.90;;;24.10;71.50;;;;;;5074180;28;21362;-85
2022/10/30 02:06:38;;;;;;;4.50;4.10;;;24.10;71.50;;;;;;5073156;28;20972;-85
2022/10/30 02:09:07;;;;;;;4.30;3.90;;;24.10;71.50;;;;;;5074349;28;20458;-85
2022/10/30 02:11:38;;;;;;;4.43;4.13;;;24.10;71.50;;;;;;5072852;28;20465;-85
2022/10/30 02:14:08;;;;;;;4.83;4.37;;;24.00;71.50;;;;;;5074080;28;20957;-85
2022/10/30 02:16:42;;;;;;;4.70;4.20;;;24.10;71.50;;;;;;5074803;28;20428;-85
2022/10/30 02:19:10;;;;;;;4.90;4.50;;;24.00;71.50;;;;;;5075229;28;20479;-85
2022/10/30 02:21:40;;;;;;;5.13;4.63;;;24.00;71.50;;;;;;5072565;28;20453;-85
2022/10/30 02:24:08;;;;;;;4.00;3.70;;;24.00;71.40;;;;;;5073262;28;20843;-85
2022/10/30 02:26:37;;;;;;;4.20;3.80;;;24.00;71.40;;;;;;5073308;28;20462;-85
2022/10/30 02:29:05;;;;;;;4.13;3.70;;;24.00;71.50;;;;;;5075024;28;20469;-85
2022/10/30 02:31:34;;;;;;;4.53;4.17;;;24.00;71.40;;;;;;5073316;28;20465;-85
2022/10/30 02:34:02;;;;;;;4.07;3.77;;;24.00;71.40;;;;;;5074913;28;20442;-85
2022/10/30 02:36:30;;;;;;;4.43;3.90;;;24.00;71.40;;;;;;5072430;28;20458;-85
2022/10/30 02:39:01;;;;;;;4.53;4.13;;;24.00;71.40;;;;;;5072802;28;20464;-85
2022/10/30 02:41:29;;;;;;;4.10;3.73;;;24.00;71.40;;;;;;5074704;28;20535;-85
2022/10/30 02:43:57;;;;;;;4.50;4.17;;;24.00;71.40;;;;;;5067579;28;20965;-85
2022/10/30 02:46:25;;;;;;;4.60;4.20;;;24.00;71.40;;;;;;5073860;28;20805;-85
2022/10/30 02:48:53;;;;;;;4.53;4.13;;;24.00;71.40;;;;;;5073472;28;20471;-85
2022/10/30 02:51:21;;;;;;;4.33;3.90;;;24.00;71.40;;;;;;5073325;28;20434;-85
2022/10/30 02:53:49;;;;;;;5.30;4.10;;;24.00;71.30;;;;;;5073781;28;20501;-85
2022/10/30 02:56:19;;;;;;;4.97;4.40;;;24.00;71.40;;;;;;5072699;28;20999;-85
2022/10/30 02:58:47;;;;;;;4.17;3.37;;;24.00;71.30;;;;;;5073051;28;20549;-85
2022/10/30 03:01:17;;;;;;;5.03;4.37;;;24.00;71.30;;;;;;5072511;28;20552;-85
2022/10/30 03:03:46;;;;;;;3.70;3.40;;;24.00;71.30;;;;;;5072453;28;20507;-85
2022/10/30 03:06:16;;;;;;;4.23;3.93;;;24.00;71.30;;;;;;5072252;28;20465;-85
2022/10/30 03:08:45;;;;;;;4.97;4.53;;;24.00;71.30;;;;;;5066974;28;20454;-84
2022/10/30 03:11:15;;;;;;;3.77;3.47;;;24.00;71.30;;;;;;5066483;28;20920;-85
2022/10/30 03:13:46;;;;;;;4.47;4.07;;;24.00;71.30;;;;;;5073860;28;20493;-85
2022/10/30 03:16:17;;;;;;;3.87;3.50;;;24.00;71.30;;;;;;5072526;28;20453;-85
2022/10/30 03:18:46;;;;;;;4.53;4.13;;;24.00;71.30;;;;;;5072616;28;20575;-85
2022/10/30 03:21:17;;;;;;;4.73;4.07;;;24.00;71.30;;;;;;5071887;28;20459;-85
2022/10/30 03:23:45;;;;;;;3.90;3.60;;;24.00;71.30;;;;;;5073793;28;20805;-85
2022/10/30 03:26:13;;;;;;;4.90;4.40;;;24.00;71.30;;;;;;5072840;28;20486;-85
2022/10/30 03:29:05;;;;;;;4.50;4.10;;;23.90;71.30;;;;;;5072496;28;20490;-85
2022/10/30 03:31:33;;;;;;;4.40;4.00;;;23.90;71.30;;;;;;5073483;28;20488;-85
2022/10/30 03:34:10;;;;;;;4.47;4.13;;;23.90;71.30;;;;;;5072725;28;20811;-85
2022/10/30 03:36:41;;;;;;;3.90;3.47;;;23.90;71.30;;;;;;5072834;28;20487;-85
2022/10/30 03:39:09;;;;;;;4.23;3.93;;;23.90;71.30;;;;;;5073857;28;20429;-85
2022/10/30 03:41:38;;;;;;;3.93;3.63;;;23.90;71.30;;;;;;5070976;28;20961;-85
2022/10/30 03:44:09;;;;;;;3.27;3.00;;;23.90;71.20;;;;;;5071141;28;20477;-86
2022/10/30 03:46:38;;;;;;;4.80;4.10;;;23.90;71.20;;;;;;5071887;28;20457;-85
2022/10/30 03:49:17;;;;;;;5.33;4.00;;;23.90;71.20;;;;;;5072459;28;20435;-85
2022/10/30 03:51:45;;;;;;;4.70;4.10;;;23.90;71.20;;;;;;5071708;28;20453;-85
2022/10/30 03:54:14;;;;;;;4.97;4.57;;;23.90;71.20;;;;;;5072912;28;20518;-85
2022/10/30 03:56:42;;;;;;;3.87;3.57;;;23.90;71.20;;;;;;5072142;28;20491;-85
2022/10/30 03:59:15;;;;;;;3.80;3.50;;;23.90;71.20;;;;;;5071702;28;20467;-85
2022/10/30 04:01:50;;;;;;;3.90;3.50;;;23.90;71.20;;;;;;5070980;28;20525;-85
2022/10/30 04:04:19;;;;;;;4.47;4.10;;;23.90;71.20;;;;;;5071677;28;20525;-85
2022/10/30 04:06:48;;;;;;;4.10;3.80;;;23.90;71.20;;;;;;5070799;28;20545;-85
2022/10/30 04:09:16;;;;;;;4.20;3.90;;;23.90;71.20;;;;;;5071682;28;21070;-85
2022/10/30 04:11:44;;;;;;;4.00;3.70;;;23.90;71.20;;;;;;5071897;28;20574;-85
2022/10/30 04:14:14;;;;;;;4.13;3.73;;;23.90;71.20;;;;;;5072909;28;20448;-85
2022/10/30 04:16:42;;;;;;;4.20;3.90;;;23.90;71.20;;;;;;5071197;28;20565;-85
2022/10/30 04:19:10;;;;;;;3.83;3.53;;;23.80;71.20;;;;;;5072405;28;20541;-85
2022/10/30 04:21:38;;;;;;;3.30;3.00;;;23.80;71.20;;;;;;5073065;28;20426;-85
2022/10/30 04:24:07;;;;;;;4.50;3.67;;;23.90;71.10;;;;;;5071255;28;20473;-85
2022/10/30 04:26:36;;;;;;;4.27;3.90;;;23.80;71.10;;;;;;5071548;28;20472;-85
2022/10/30 04:29:05;;;;;;;4.10;3.70;;;23.80;71.10;;;;;;5072843;28;20441;-85
2022/10/30 04:31:34;;;;;;;4.40;4.00;;;23.80;71.10;;;;;;5067229;28;20461;-85
2022/10/30 04:34:02;;;;;;;5.47;3.73;;;23.80;71.10;;;;;;5053332;28;20426;-85
2022/10/30 04:36:32;;;;;;;3.70;3.50;;;23.80;71.10;;;;;;5066643;28;20467;-85
2022/10/30 04:39:02;;;;;;;3.60;3.30;;;23.80;71.10;;;;;;5071433;28;20452;-85
2022/10/30 04:41:31;;;;;;;3.27;3.07;;;23.80;71.10;;;;;;5070878;28;20810;-85
2022/10/30 04:44:04;;;;;;;4.23;3.83;;;23.80;71.10;;;;;;5070918;28;20503;-85
2022/10/30 04:46:34;;;;;;;3.73;3.43;;;23.80;71.10;;;;;;5071052;28;20552;-85
2022/10/30 04:49:09;;;;;;;3.73;3.43;;;23.80;71.10;;;;;;5071326;28;20453;-85
2022/10/30 04:51:37;;;;;;;7.53;4.13;;;23.80;71.10;;;;;;5070594;28;20469;-85
2022/10/30 04:54:07;;;;;;;3.90;3.60;;;23.80;71.20;;;;;;5070525;28;20486;-85
2022/10/30 04:56:37;;;;;;;4.17;3.77;;;23.80;71.10;;;;;;5071144;28;20480;-85
2022/10/30 04:59:05;;;;;;;4.30;3.90;;;23.80;71.10;;;;;;5070253;28;20468;-85
2022/10/30 05:01:35;;;;;;;4.00;3.60;;;23.80;71.10;;;;;;5070850;28;20548;-85
2022/10/30 05:04:04;;;;;;;4.20;3.80;;;23.80;71.10;;;;;;5052732;28;20536;-85
2022/10/30 05:06:33;;;;;;;3.90;3.63;;;23.80;71.10;;;;;;5069494;28;20472;-85
2022/10/30 05:09:02;;;;;;;4.87;3.27;;;23.80;71.10;;;;;;5071089;28;20785;-85
2022/10/30 05:11:39;;;;;;;3.47;3.17;;;23.80;71.10;;;;;;5070199;28;20985;-85
2022/10/30 05:14:08;;;;;;;4.07;3.77;;;23.80;71.10;;;;;;5071908;28;20463;-85
2022/10/30 05:16:39;;;;;;;3.43;3.20;;;23.80;71.10;;;;;;5069935;28;20457;-85
2022/10/30 05:19:07;;;;;;;4.37;3.97;;;23.80;71.10;;;;;;5070470;28;20492;-85
2022/10/30 05:21:36;;;;;;;3.57;3.27;;;23.80;71.10;;;;;;5069978;28;20456;-84
2022/10/30 05:24:05;;;;;;;3.83;3.47;;;23.70;71.10;;;;;;5070871;28;20485;-85
2022/10/30 05:26:42;;;;;;;3.57;3.27;;;23.70;71.10;;;;;;5066003;28;20531;-85
2022/10/30 05:29:12;;;;;;;4.10;3.40;;;23.70;71.10;;;;;;5079447;28;20452;-85
2022/10/30 05:31:41;;;;;;;3.97;3.67;;;23.70;71.10;;;;;;5076682;28;21043;-85
2022/10/30 05:34:15;;;;;;;3.40;3.20;;;23.70;71.10;;;;;;5074594;28;20457;-85
2022/10/30 05:36:45;;;;;;;3.70;3.40;;;23.70;71.10;;;;;;5074551;28;20476;-85
2022/10/30 05:39:14;;;;;;;3.93;3.60;;;23.70;71.10;;;;;;5073100;28;21337;-85
2022/10/30 05:41:47;;;;;;;4.33;4.03;;;23.70;71.00;;;;;;5073306;28;20456;-85
2022/10/30 05:44:17;;;;;;;4.30;3.90;;;23.70;71.00;;;;;;5074706;28;20475;-85
2022/10/30 05:47:07;;;;;;;3.60;3.40;;;23.70;71.00;;;;;;5073816;28;20461;-85
2022/10/30 05:49:35;;;;;;;3.30;3.00;;;23.70;71.00;;;;;;5074363;28;20469;-85
2022/10/30 05:52:07;;;;;;;4.40;4.10;;;23.70;71.00;;;;;;5074237;28;20470;-85
2022/10/30 05:54:35;;;;;;;3.50;3.20;;;23.70;71.00;;;;;;5073034;28;20527;-85
2022/10/30 05:57:12;;;;;;;3.20;3.00;;;23.70;71.00;;;;;;5073628;28;20457;-85
2022/10/30 05:59:41;;;;;;;3.77;3.33;;;23.70;71.00;;;;;;5073896;28;20485;-85
2022/10/30 06:02:10;;;;;;;3.97;3.23;;;23.70;71.00;;;;;;5070767;28;20471;-85
2022/10/30 06:04:38;;;;;;;3.47;3.17;;;23.70;71.00;;;;;;5073477;28;20918;-85
2022/10/30 06:07:11;;;;;;;3.37;3.07;;;23.70;71.00;;;;;;5073540;28;20496;-85
2022/10/30 06:09:40;;;;;;;4.07;3.70;;;23.70;70.90;;;;;;5075094;28;20447;-85
2022/10/30 06:12:52;;;;;;;3.50;3.30;;;23.70;70.90;;;;;;5037328;28;20452;-85
2022/10/30 06:15:31;;;;;;;3.33;3.10;;;23.70;71.00;;;;;;5031810;28;20561;-85
2022/10/30 06:18:01;;;;;;;4.20;3.90;;;23.70;70.90;;;;;;5052634;28;20485;-85
2022/10/30 06:20:41;;;;;;;4.17;3.80;;;23.70;70.90;;;;;;5063359;28;20456;-85
2022/10/30 06:23:28;;;;;;;3.40;3.20;;;23.70;70.90;;;;;;5067009;28;20436;-85
2022/10/30 06:26:06;;;;;;;3.53;3.33;;;23.70;70.90;;;;;;5069347;28;20490;-85
2022/10/30 06:28:54;;;;;;;3.53;3.23;;;23.70;70.90;;;;;;5068960;28;20550;-85
2022/10/30 06:31:22;;;;;;;3.23;2.70;;;23.70;70.90;;;;;;5075515;28;20456;-85
2022/10/30 06:33:52;;;;;;;3.63;3.23;;;23.70;70.90;;;;;;5072359;28;20988;-85
2022/10/30 06:36:20;;;;;;;4.10;3.80;;;23.70;70.80;;;;;;5068183;28;20472;-85
2022/10/30 06:38:48;;;;;;;3.60;3.40;;;23.70;70.80;;;;;;5063073;28;21101;-85
2022/10/30 06:41:19;;;;;;;5.43;3.40;;;23.70;70.90;;;;;;5068443;28;20460;-85
2022/10/30 06:44:17;;;;;;;4.63;3.53;;;23.70;70.90;;;;;;5066009;28;20987;-86
2022/10/30 06:46:45;;;;;;;4.13;3.63;;;23.70;70.80;;;;;;5069337;28;20479;-85
2022/10/30 06:49:14;;;;;;;3.77;3.50;;;23.70;70.80;;;;;;5085256;28;20571;-85
2022/10/30 06:51:42;;;;;;;4.50;3.37;;;23.70;70.80;;;;;;5083539;28;20529;-85
2022/10/30 06:54:11;;;;;;;4.27;3.97;;;23.70;70.80;;;;;;5080715;28;20547;-85
2022/10/30 06:56:39;;;;;;;4.13;3.67;;;23.70;70.70;;;;;;5073542;28;20449;-85
2022/10/30 06:59:36;;;;;;;3.50;3.20;;;23.70;70.70;;;;;;5071372;28;20963;-85
2022/10/30 07:02:23;;;;;;;4.23;3.77;;;23.70;70.70;;;;;;5059190;28;20477;-86
2022/10/30 07:04:56;;;;;;;5.23;3.50;;;23.60;70.70;;;;;;5061811;28;20980;-84
2022/10/30 07:07:24;;;;;;;4.07;3.67;;;23.70;70.60;;;;;;5070151;28;20553;-83
2022/10/30 07:09:53;;;;;;;3.57;3.27;;;23.70;70.50;;;;;;5067229;28;20541;-83
2022/10/30 07:12:28;;;;;;;3.40;3.10;;;23.70;70.50;;;;;;5070912;28;20453;-84
2022/10/30 07:15:09;;;;;;;3.20;2.90;;;23.70;70.50;;;;;;5068647;28;20472;-85
2022/10/30 07:17:42;;;;;;;3.87;3.57;;;23.70;70.40;;;;;;5064321;28;20994;-85
2022/10/30 07:20:21;;;;;;;4.30;3.90;;;23.70;70.30;;;;;;5064550;28;20472;-85
2022/10/30 07:22:50;;;;;;;4.00;3.70;;;23.70;70.30;;;;;;5065166;28;20524;-85
2022/10/30 07:25:18;;;;;;;4.67;4.17;;;23.70;70.30;;;;;;5063850;28;20541;-84
2022/10/30 07:27:59;;;;;;;5.20;4.77;;;23.70;70.20;;;;;;5061042;28;20871;-85
2022/10/30 07:30:38;;;;;;;4.53;4.13;;;23.70;70.20;;;;;;5069569;28;20969;-84
2022/10/30 07:33:15;;;;;;;3.50;3.20;;;23.70;70.20;;;;;;5070345;28;20466;-84
2022/10/30 07:36:00;;;;;;;4.57;4.17;;;23.70;70.20;;;;;;5065921;28;20555;-84
2022/10/30 07:38:45;;;;;;;4.60;4.20;;;23.70;70.10;;;;;;5067333;28;20850;-85
2022/10/30 07:41:27;;;;;;;5.67;4.10;;;23.70;70.10;;;;;;5079628;28;20461;-85
2022/10/30 07:44:14;;;;;;;4.93;3.80;;;23.70;70.60;;;;;;5068893;28;20454;-85
2022/10/30 07:47:05;;;;;;;6.70;3.50;;;23.70;71.10;;;;;;5060978;28;20483;-87
2022/10/30 07:49:45;;;;;;;3.93;3.60;;;23.70;71.30;;;;;;5071101;28;20812;-86
2022/10/30 07:52:16;;;;;;;5.07;4.57;;;23.70;71.30;;;;;;5070815;28;20526;-85
2022/10/30 07:54:47;;;;;;;4.43;3.67;;;23.70;71.20;;;;;;5071906;28;20493;-89
2022/10/30 07:57:36;;;;;;;4.43;4.03;;;23.70;71.30;;;;;;5071528;28;20448;-86
2022/10/30 08:00:14;;;;;;;5.73;4.30;;;23.70;71.30;;;;;;5069637;28;21008;-86
2022/10/30 08:02:56;;;;;;;3.37;3.07;;;23.80;71.40;;;;;;5072217;28;20462;-90
2022/10/30 08:05:48;;;;;;;4.40;3.30;;;23.70;71.50;;;;;;5042701;28;20473;-84
2022/10/30 08:08:35;;;;;;;4.60;4.20;;;23.80;71.50;;;;;;5058889;28;20462;-83
2022/10/30 08:11:29;;;;;;;6.03;3.87;;;23.80;71.50;;;;;;5057034;28;21007;-83
2022/10/30 08:13:59;;;;;;;4.40;4.00;;;23.80;71.60;;;;;;5055745;28;20468;-83
2022/10/30 08:16:27;;;;;;;4.63;3.80;;;23.80;71.50;;;;;;5071577;28;20514;-84
2022/10/30 08:18:57;;;;;;;3.93;3.63;;;23.80;71.60;;;;;;5071892;28;20880;-83
2022/10/30 08:21:26;;;;;;;4.67;4.07;;;23.80;71.60;;;;;;5068820;28;20459;-83
2022/10/30 08:24:07;;;;;;;4.27;3.37;;;23.80;71.70;;;;;;5051151;28;20460;-83
2022/10/30 08:26:36;;;;;;;5.07;4.10;;;23.80;71.70;;;;;;5068380;28;20526;-83
2022/10/30 08:29:04;;;;;;;3.50;3.30;;;23.80;71.70;;;;;;5070693;28;20524;-83
2022/10/30 08:31:32;;;;;;;12.13;4.60;;;23.80;71.80;;;;;;5066269;28;20466;-83
2022/10/30 08:34:03;;;;;;;4.97;4.57;;;23.80;71.80;;;;;;5067913;28;20461;-83
2022/10/30 08:36:48;;;;;;;4.23;3.83;;;23.80;71.80;;;;;;5058588;28;20472;-83
2022/10/30 08:39:18;;;;;;;4.83;3.77;;;23.80;71.80;;;;;;5062548;28;20469;-84
2022/10/30 08:42:05;;;;;;;4.03;3.73;;;23.90;71.80;;;;;;5059582;28;20519;-83
2022/10/30 08:44:39;;;;;;;4.57;4.17;;;23.90;71.80;;;;;;5060050;28;20480;-83
2022/10/30 08:47:26;;;;;;;3.20;3.00;;;23.90;71.90;;;;;;5059995;28;21065;-83
2022/10/30 08:49:54;;;;;;;4.10;3.70;;;23.90;71.90;;;;;;5062842;28;20456;-82
2022/10/30 08:52:27;;;;;;;5.80;3.90;;;23.90;71.90;;;;;;5078020;28;20469;-82
2022/10/30 08:54:58;;;;;;;7.53;4.43;;;23.90;71.90;;;;;;5063465;28;20523;-82
2022/10/30 08:57:27;;;;;;;5.53;4.43;;;23.90;71.80;;;;;;5057522;28;20499;-83
2022/10/30 08:59:57;;;;;;;5.80;4.20;;;23.90;71.80;;;;;;5064884;28;20483;-83
2022/10/30 09:02:44;;;;;;;7.33;3.80;;;23.90;71.80;;;;;;5062033;28;20465;-83
2022/10/30 09:05:47;;;;;;;5.77;3.63;;;23.90;71.70;;;;;;5017618;28;20989;-84
2022/10/30 09:08:34;;;;;;;4.40;3.90;;;23.90;71.70;;;;;;5057164;28;21005;-84
2022/10/30 09:11:11;;;;;;;5.80;4.13;;;23.90;71.60;;;;;;5057375;28;20514;-84
2022/10/30 09:13:40;;;;;;;8.07;4.93;;;24.00;71.60;;;;;;5075869;28;21033;-84
2022/10/30 09:16:09;;;;;;;5.23;4.30;;;24.00;71.60;;;;;;5057850;28;20466;-83
2022/10/30 09:18:38;;;;;;;10.30;4.30;;;24.00;71.70;;;;;;5066344;28;20831;-85
2022/10/30 09:21:06;;;;;;;4.50;3.97;;;24.00;71.90;;;;;;5058412;28;20477;-83
2022/10/30 09:23:40;;;;;;;5.93;3.47;;;24.00;72.00;;;;;;5061178;28;20569;-83
2022/10/30 09:26:29;;;;;;;6.17;3.77;;;24.00;71.90;;;;;;5062341;28;21176;-82
2022/10/30 09:29:32;;;;;;;5.47;4.07;;;24.00;71.90;;;;;;5058112;28;20457;-83
2022/10/30 09:32:08;;;;;;;5.37;4.03;;;24.00;71.90;;;;;;5062378;28;20589;-83
2022/10/30 09:34:59;;;;;;;3.80;3.50;;;24.10;71.90;;;;;;5064641;28;20454;-83
2022/10/30 09:37:34;;;;;;;8.63;4.40;;;24.10;71.90;;;;;;5067159;28;20470;-83
2022/10/30 09:40:03;;;;;;;7.60;5.23;;;24.10;71.90;;;;;;5065701;28;20503;-83
2022/10/30 09:42:42;;;;;;;8.90;4.60;;;24.10;71.90;;;;;;5065147;28;20461;-83
2022/10/30 09:45:48;;;;;;;3.90;3.60;;;24.10;71.80;;;;;;5056090;28;20845;-83
2022/10/30 09:48:46;;;;;;;5.40;4.10;;;24.10;71.70;;;;;;5068109;28;20465;-83
2022/10/30 09:51:31;;;;;;;4.33;3.93;;;24.10;71.80;;;;;;5066011;28;20465;-83
2022/10/30 09:54:09;;;;;;;7.70;4.57;;;24.10;71.70;;;;;;5066746;28;20526;-82
2022/10/30 09:56:46;;;;;;;9.90;4.13;;;24.20;71.90;;;;;;5064933;28;20504;-83
2022/10/30 09:59:28;;;;;;;6.33;3.90;;;24.20;72.10;;;;;;5062567;28;20975;-82
2022/10/30 10:02:01;;;;;;;6.10;5.03;;;24.20;72.10;;;;;;5072114;28;20519;-83
2022/10/30 10:04:40;;;;;;;4.70;4.23;;;24.20;72.10;;;;;;5057632;28;20653;-82
2022/10/30 10:07:31;;;;;;;6.60;3.70;;;24.20;72.10;;;;;;5060807;28;20471;-83
2022/10/30 10:10:17;;;;;;;8.93;4.60;;;24.30;72.00;;;;;;5067809;28;20548;-82
2022/10/30 10:12:55;;;;;;;6.13;4.40;;;24.30;71.90;;;;;;5064575;28;20543;-83
2022/10/30 10:15:37;;;;;;;8.87;5.93;;;24.30;71.90;;;;;;5064130;28;20457;-84
2022/10/30 10:18:12;;;;;;;8.80;4.67;;;24.40;71.90;;;;;;5068576;28;20913;-85
2022/10/30 10:20:43;;;;;;;5.40;4.07;;;24.40;71.90;;;;;;5063750;28;20470;-85
2022/10/30 10:23:17;;;;;;;5.70;4.07;;;24.40;71.90;;;;;;5060416;28;20552;-84
2022/10/30 10:25:52;;;;;;;5.63;4.07;;;24.50;71.70;;;;;;5065458;28;20949;-85
2022/10/30 10:28:47;;;;;;;5.07;4.50;;;24.60;71.50;;;;;;5064984;28;20482;-85
2022/10/30 10:31:27;;;;;;;7.60;4.53;;;24.70;71.20;;;;;;5067150;28;20480;-84
2022/10/30 10:34:12;;;;;;;5.30;4.00;;;24.80;70.90;;;;;;5065571;28;20481;-85
2022/10/30 10:36:50;;;;;;;14.33;5.33;;;25.00;70.60;;;;;;5071214;28;20967;-83
2022/10/30 10:39:34;;;;;;;8.53;5.10;;;25.20;70.10;;;;;;5074053;28;20451;-84
2022/10/30 10:42:19;;;;;;;6.70;4.37;;;25.40;69.60;;;;;;5069593;28;20450;-85
2022/10/30 10:45:04;;;;;;;7.73;4.13;;;25.50;69.30;;;;;;5071133;28;21131;-82
2022/10/30 10:48:07;;;;;;;8.83;4.00;;;25.70;68.90;;;;;;5072134;28;20468;-84
2022/10/30 10:50:41;;;;;;;10.43;7.30;;;25.80;68.50;;;;;;5064417;28;20949;-84
2022/10/30 10:53:16;;;;;;;7.67;4.67;;;25.90;68.30;;;;;;5066524;28;20489;-84
2022/10/30 10:55:50;;;;;;;9.60;4.40;;;26.00;68.00;;;;;;5076512;28;20460;-84
2022/10/30 10:58:26;;;;;;;5.33;4.67;;;26.10;67.90;;;;;;5073074;28;20459;-85
2022/10/30 11:00:57;;;;;;;8.93;4.30;;;26.20;67.60;;;;;;5065047;28;20464;-83
2022/10/30 11:03:34;;;;;;;7.30;3.73;;;26.30;67.30;;;;;;5073670;28;20453;-85
2022/10/30 11:06:20;;;;;;;9.63;4.23;;;26.30;67.40;;;;;;5073435;28;20456;-84
2022/10/30 11:08:50;;;;;;;6.23;4.00;;;26.40;67.20;;;;;;5077467;28;20472;-84
2022/10/30 11:11:18;;;;;;;6.47;4.33;;;26.50;67.00;;;;;;5074605;28;20991;-84
2022/10/30 11:13:46;;;;;;;5.27;3.50;;;26.50;66.90;;;;;;5066626;28;20473;-84
2022/10/30 11:16:24;;;;;;;9.10;4.63;;;26.50;66.80;;;;;;5069135;28;20461;-85
2022/10/30 11:18:58;;;;;;;6.13;4.10;;;26.50;66.90;;;;;;5070080;28;20484;-84
2022/10/30 11:21:29;;;;;;;6.53;3.90;;;26.50;66.90;;;;;;5068004;28;20457;-88
2022/10/30 11:23:57;;;;;;;6.30;4.50;;;26.50;67.00;;;;;;5075882;28;20450;-85
2022/10/30 11:26:30;;;;;;;12.87;4.77;;;26.50;67.60;;;;;;5074494;28;20490;-89
2022/10/30 11:29:03;;;;;;;7.30;4.53;;;26.50;67.70;;;;;;5070001;28;20530;-87
2022/10/30 11:31:36;;;;;;;6.63;4.53;;;26.60;67.70;;;;;;5063726;28;21148;-87
2022/10/30 11:34:32;;;;;;;8.80;4.90;;;26.60;67.70;;;;;;5069692;28;20447;-88
2022/10/30 11:37:01;;;;;;;7.73;4.57;;;26.60;67.70;;;;;;5065646;28;20503;-88
2022/10/30 11:39:31;;;;;;;10.97;4.37;;;26.50;67.70;;;;;;5065743;28;20448;-88
2022/10/30 11:42:03;;;;;;;6.10;5.17;;;26.50;67.70;;;;;;5069115;28;20463;-89
2022/10/30 11:44:37;;;;;;;5.90;3.87;;;26.50;67.80;;;;;;5066245;28;20450;-89
2022/10/30 11:47:07;;;;;;;6.00;3.67;;;26.60;67.70;;;;;;5065957;28;20452;-87
2022/10/30 11:49:45;;;;;;;9.20;4.20;;;26.60;67.70;;;;;;5067299;28;20469;-88
2022/10/30 11:52:15;;;;;;;5.70;4.23;;;26.60;67.70;;;;;;5065050;28;20461;-87
2022/10/30 11:54:47;;;;;;;8.63;4.40;;;26.60;67.60;;;;;;5069951;28;20489;-88
2022/10/30 11:57:23;;;;;;;18.87;5.00;;;26.60;67.50;;;;;;5075128;28;20453;-86
2022/10/30 11:59:54;;;;;;;8.60;4.40;;;26.60;67.50;;;;;;5073422;28;20613;-83
2022/10/30 12:02:29;;;;;;;6.53;4.30;;;26.60;67.60;;;;;;5060257;28;20489;-83
2022/10/30 12:05:02;;;;;;;9.90;4.97;;;26.60;67.40;;;;;;5066861;28;20955;-84
2022/10/30 12:07:31;;;;;;;5.70;3.80;;;26.60;67.30;;;;;;5064723;28;20485;-86
2022/10/30 12:10:01;;;;;;;5.60;4.17;;;26.60;67.20;;;;;;5065281;28;20475;-86
2022/10/30 12:12:33;;;;;;;4.57;4.10;;;26.60;67.20;;;;;;5062077;28;20496;-84
2022/10/30 12:15:14;;;;;;;5.00;3.93;;;26.60;67.10;;;;;;5064597;28;20528;-85
2022/10/30 12:17:51;;;;;;;7.70;4.27;;;26.60;67.10;;;;;;5066597;28;21014;-89
2022/10/30 12:20:21;;;;;;;10.00;5.23;;;26.60;67.00;;;;;;5059784;28;20488;-87
2022/10/30 12:22:49;;;;;;;8.37;4.50;;;26.60;67.00;;;;;;5059726;28;20800;-84
2022/10/30 12:25:23;;;;;;;12.63;4.07;;;26.60;66.90;;;;;;5070105;28;20445;-86
2022/10/30 12:27:59;;;;;;;5.27;3.80;;;26.60;66.90;;;;;;5063943;28;20485;-85
2022/10/30 12:30:30;;;;;;;5.47;3.93;;;26.60;66.90;;;;;;5073906;28;20462;-85
2022/10/30 12:33:03;;;;;;;5.60;4.20;;;26.60;66.80;;;;;;5071917;28;20974;-84
2022/10/30 12:35:46;;;;;;;7.37;5.17;;;26.60;66.90;;;;;;5067345;28;20514;-85
2022/10/30 12:38:21;;;;;;;5.23;3.50;;;26.50;67.10;;;;;;5067607;28;20470;-86
2022/10/30 12:41:00;;;;;;;6.00;3.73;;;26.60;66.90;;;;;;5063897;28;20461;-84
2022/10/30 12:43:28;;;;;;;4.80;3.53;;;26.60;66.80;;;;;;5069381;28;21161;-86
2022/10/30 12:46:05;;;;;;;6.23;4.20;;;26.60;66.80;;;;;;5071167;28;20465;-85
2022/10/30 12:48:41;;;;;;;4.90;3.87;;;26.60;66.70;;;;;;5071902;28;20467;-86
2022/10/30 12:51:17;;;;;;;7.13;3.90;;;26.60;66.60;;;;;;5066232;28;21162;-85
2022/10/30 12:53:57;;;;;;;6.40;4.40;;;26.70;66.50;;;;;;5062533;28;20527;-86
2022/10/30 12:56:31;;;;;;;4.60;3.67;;;26.60;66.60;;;;;;5067122;28;20546;-87
2022/10/30 12:59:13;;;;;;;5.40;3.83;;;26.70;66.50;;;;;;5069088;28;20471;-86
2022/10/30 13:01:48;;;;;;;3.73;3.43;;;26.70;66.40;;;;;;5068674;28;20780;-88
2022/10/30 13:04:19;;;;;;;10.00;3.80;;;26.70;66.50;;;;;;5073116;28;20540;-89
2022/10/30 13:06:53;;;;;;;7.33;4.20;;;26.70;66.60;;;;;;5069326;28;20456;-87
2022/10/30 13:09:27;;;;;;;8.27;4.00;;;26.70;66.50;;;;;;5078286;28;20528;-88
2022/10/30 13:12:03;;;;;;;4.33;3.93;;;26.70;66.50;;;;;;5073182;28;20450;-88
2022/10/30 13:14:37;;;;;;;5.93;3.97;;;26.70;66.40;;;;;;5073598;28;20534;-88
2022/10/30 13:17:11;;;;;;;4.30;3.70;;;26.70;66.40;;;;;;5070451;28;20453;-87
2022/10/30 13:19:40;;;;;;;4.23;3.77;;;26.70;66.50;;;;;;5070235;28;20905;-87
2022/10/30 13:22:18;;;;;;;7.47;3.70;;;26.70;66.40;;;;;;5070203;28;20460;-86